Terminal Aerodrome Forecast
Issued by NWS

Home | Current Version | Previous Version | Text Only | Print | Product List | Glossary On
Versions: 1 2 3 4 5 6 7 8 9 10 11 12
000
FTUS45 KTFX 211700
TAFHLN
TAF
KHLN 211733Z 2118/2218 27015KT P6SM -SHRA BKN060
      TEMPO 2118/2122 VRB25G35KT -TSRA BKN040CB
     FM220000 27010KT P6SM VCSH BKN070
     FM220400 25004KT P6SM SCT070 BKN120
     FM220800 VRB06KT P6SM FEW150=

USA.gov is the U.S. government's official web portal to all federal, state and local government web resources and services.